Details for EasyJet at LFLL




Go Back


Latest METAR
Local Time

LFLL 211430Z 36014KT 9999 BKN046 BKN055 04/M05 Q1012 NOSIG

21/02/2018, 16:03:07

Description
Results
EasyJet Logo
Number of Pilots based at LFLL
0 Pilots Based here
Number of EasyJet Flights Departed from LFLL
0 Flights Departed
Number of EasyJet Flights Arrived at LFLL
0 Flights Arrived
Number of EasyJet Schedules Departing from LFLL
94 Schedules
Number of EasyJet Schedules Arriving at LFLL
92 Schedules
Number of EasyJet Schedules Departing from LFLL availible today
27 Schedules Today
Number of EasyJet Schedules Arriving at LFLL availible today
27 Schedules Today
Average Landing Rate at LFLL
-273 fpm
EasyJet Average Landing Rate at LFLL
0 fpm
Total Fuel Purchased at LFLL by EasyJet
0.00 kgs / 0.00 lbs

Pilots Based at LFLL


Pilot ID
Pilot Name
Pilot Rank
No. of Flights
No. of Flying Hours
There are no pilots assigned to this hub!   Will you be the first?
Content